createdAt,value
2023-04-12T00:00:15.136Z,1375.00
2023-04-12T00:01:15.153Z,1371.00
2023-04-12T00:02:15.216Z,1365.00
2023-04-12T00:03:15.260Z,1362.00
2023-04-12T00:04:15.319Z,1367.00
2023-04-12T00:05:15.240Z,1361.00
2023-04-12T00:06:15.208Z,1349.00
2023-04-12T00:07:15.217Z,1352.00
2023-04-12T00:08:15.241Z,1350.00
2023-04-12T00:09:15.252Z,1355.00
2023-04-12T00:10:15.270Z,1354.00
2023-04-12T00:11:15.283Z,1340.00
2023-04-12T00:12:15.294Z,1360.00
2023-04-12T00:13:15.307Z,1339.00
2023-04-12T00:14:15.329Z,1362.00
2023-04-12T00:15:15.331Z,1328.00
2023-04-12T00:16:15.396Z,1340.00
2023-04-12T00:17:15.376Z,1333.00
2023-04-12T00:18:16.289Z,1327.00
2023-04-12T00:19:15.394Z,1327.00
2023-04-12T00:20:15.413Z,1327.00
2023-04-12T00:21:15.420Z,1315.00
2023-04-12T00:22:15.439Z,1322.00
2023-04-12T00:23:15.447Z,1330.00
2023-04-12T00:24:15.454Z,1315.00
2023-04-12T00:25:15.482Z,1299.00
2023-04-12T00:26:15.495Z,1320.00
2023-04-12T00:27:15.501Z,1312.00
2023-04-12T00:28:15.524Z,1307.00
2023-04-12T00:29:15.534Z,1302.00
2023-04-12T00:30:15.547Z,1309.00
2023-04-12T00:31:15.593Z,1305.00
2023-04-12T00:32:15.581Z,1295.00
2023-04-12T00:33:15.590Z,1305.00
2023-04-12T00:34:15.602Z,1302.00
2023-04-12T00:35:15.610Z,1292.00
2023-04-12T00:36:15.954Z,1297.00
2023-04-12T00:37:15.641Z,1289.00
2023-04-12T00:38:15.663Z,1283.00
2023-04-12T00:39:15.677Z,1296.00
2023-04-12T00:40:15.698Z,1284.00
2023-04-12T00:41:15.710Z,1288.00
2023-04-12T00:42:15.719Z,1284.00
2023-04-12T00:43:15.861Z,1284.00
2023-04-12T00:44:15.760Z,1275.00
2023-04-12T00:45:15.771Z,1275.00
2023-04-12T00:46:15.803Z,1269.00
2023-04-12T00:47:15.806Z,1277.00
2023-04-12T00:48:15.817Z,1274.00
2023-04-12T00:49:15.819Z,1267.00
2023-04-12T00:50:15.838Z,1264.00
2023-04-12T00:51:15.862Z,1268.00
2023-04-12T00:52:15.923Z,1257.00
2023-04-12T00:53:15.914Z,1269.00
2023-04-12T00:54:16.107Z,1254.00
2023-04-12T00:55:15.938Z,1268.00
2023-04-12T00:56:15.949Z,1259.00
2023-04-12T00:57:15.970Z,1269.00
2023-04-12T00:58:15.980Z,1263.00
2023-04-12T00:59:15.994Z,1250.00
2023-04-12T01:00:16.008Z,1246.00
2023-04-12T01:01:16.118Z,1233.00
2023-04-12T01:02:16.127Z,1259.00
2023-04-12T01:03:16.243Z,1251.00
2023-04-12T01:04:16.118Z,1239.00
2023-04-12T01:05:16.066Z,1240.00
2023-04-12T01:06:16.088Z,1237.00
2023-04-12T01:07:16.094Z,1227.00
2023-04-12T01:08:16.108Z,1234.00
2023-04-12T01:09:16.115Z,1260.00
2023-04-12T01:10:16.124Z,1220.00
2023-04-12T01:11:16.139Z,1235.00
2023-04-12T01:12:16.178Z,1244.00
2023-04-12T01:13:16.171Z,1231.00
2023-04-12T01:14:16.178Z,1233.00
2023-04-12T01:15:16.183Z,1230.00
2023-04-12T01:16:16.262Z,1226.00
2023-04-12T01:17:16.211Z,1237.00
2023-04-12T01:18:16.227Z,1231.00
2023-04-12T01:19:16.240Z,1225.00
2023-04-12T01:20:16.262Z,1233.00
2023-04-12T01:21:16.272Z,1220.00
2023-04-12T01:22:16.278Z,1218.00
2023-04-12T01:23:16.308Z,1210.00
2023-04-12T01:24:16.310Z,1213.00
2023-04-12T01:25:16.342Z,1200.00
2023-04-12T01:26:16.334Z,1198.00
2023-04-12T01:27:16.348Z,1207.00
2023-04-12T01:28:16.372Z,1190.00
2023-04-12T01:29:16.389Z,1195.00
2023-04-12T01:30:16.394Z,1197.00
2023-04-12T01:31:16.449Z,1186.00
2023-04-12T01:32:16.429Z,1194.00
2023-04-12T01:33:16.442Z,1187.00
2023-04-12T01:34:16.455Z,1193.00
2023-04-12T01:35:16.458Z,1180.00
2023-04-12T01:36:16.467Z,1183.00
2023-04-12T01:37:16.475Z,1171.00
2023-04-12T01:38:16.489Z,1177.00
2023-04-12T01:39:16.494Z,1171.00
2023-04-12T01:40:16.510Z,1172.00
2023-04-12T01:41:16.514Z,1178.00
2023-04-12T01:42:16.526Z,1160.00
2023-04-12T01:43:16.537Z,1165.00
2023-04-12T01:44:16.549Z,1159.00
2023-04-12T01:45:16.578Z,1184.00
2023-04-12T01:46:16.620Z,1165.00
2023-04-12T01:47:16.588Z,1161.00
2023-04-12T01:48:16.611Z,1160.00
2023-04-12T01:49:16.638Z,1161.00
2023-04-12T01:50:16.649Z,1171.00
2023-04-12T01:51:16.635Z,1154.00
2023-04-12T01:52:16.635Z,1162.00
2023-04-12T01:53:16.649Z,1151.00
2023-04-12T01:54:16.654Z,1160.00
2023-04-12T01:55:16.669Z,1152.00
2023-04-12T01:56:16.681Z,1175.00
2023-04-12T01:57:16.686Z,1141.00
2023-04-12T01:58:16.702Z,1143.00
2023-04-12T01:59:16.719Z,1150.00
2023-04-12T02:00:16.708Z,1143.00
2023-04-12T02:01:16.768Z,1152.00
2023-04-12T02:02:16.761Z,1149.00
2023-04-12T02:03:16.887Z,1138.00
2023-04-12T02:04:16.784Z,1141.00
2023-04-12T02:05:16.740Z,1142.00
2023-04-12T02:06:16.736Z,1141.00
2023-04-12T02:07:16.754Z,1133.00
2023-04-12T02:08:16.766Z,1131.00
2023-04-12T02:09:16.760Z,1118.00
2023-04-12T02:10:16.794Z,1133.00
2023-04-12T02:11:16.822Z,1126.00
2023-04-12T02:12:16.798Z,1130.00
2023-04-12T02:13:16.798Z,1150.00
2023-04-12T02:14:16.823Z,1129.00
2023-04-12T02:15:16.821Z,1123.00
2023-04-12T02:16:16.893Z,1127.00
2023-04-12T02:17:16.858Z,1119.00
2023-04-12T02:18:16.880Z,1125.00
2023-04-12T02:19:16.880Z,1108.00
2023-04-12T02:20:16.890Z,1120.00
2023-04-12T02:21:16.912Z,1119.00
2023-04-12T02:22:16.909Z,1123.00
2023-04-12T02:23:16.923Z,1110.00
2023-04-12T02:24:16.934Z,1109.00
2023-04-12T02:25:16.962Z,1107.00
2023-04-12T02:26:16.953Z,1108.00
2023-04-12T02:27:16.962Z,1103.00
2023-04-12T02:28:16.975Z,1102.00
2023-04-12T02:29:16.993Z,1108.00
2023-04-12T02:30:17.006Z,1112.00
2023-04-12T02:31:17.163Z,1101.00
2023-04-12T02:32:17.004Z,1100.00
2023-04-12T02:33:16.988Z,1105.00
2023-04-12T02:34:17.001Z,1096.00
2023-04-12T02:35:17.014Z,1104.00
2023-04-12T02:36:17.011Z,1101.00
2023-04-12T02:37:17.009Z,1094.00
2023-04-12T02:38:17.008Z,1093.00
2023-04-12T02:39:17.014Z,1098.00
2023-04-12T02:40:17.012Z,1090.00
2023-04-12T02:41:17.011Z,1091.00
2023-04-12T02:42:17.018Z,1089.00
2023-04-12T02:43:17.032Z,1089.00
2023-04-12T02:44:17.048Z,1092.00
2023-04-12T02:45:17.042Z,1111.00
2023-04-12T02:46:17.093Z,1077.00
2023-04-12T02:47:17.047Z,1088.00
2023-04-12T02:48:17.050Z,1080.00
2023-04-12T02:49:17.090Z,1094.00
2023-04-12T02:50:17.068Z,1079.00
2023-04-12T02:51:17.069Z,1093.00
2023-04-12T02:52:17.087Z,1086.00
2023-04-12T02:53:17.078Z,1079.00
2023-04-12T02:54:17.105Z,1066.00
2023-04-12T02:55:17.108Z,1080.00
2023-04-12T02:56:17.112Z,1074.00
2023-04-12T02:57:17.120Z,1070.00
2023-04-12T02:58:17.130Z,1074.00
2023-04-12T02:59:17.141Z,1059.00
2023-04-12T03:00:17.160Z,1064.00
2023-04-12T03:01:17.184Z,1063.00
2023-04-12T03:02:17.248Z,1071.00
2023-04-12T03:03:17.325Z,1073.00
2023-04-12T03:04:17.290Z,1064.00
2023-04-12T03:05:17.209Z,1059.00
2023-04-12T03:06:17.220Z,1067.00
2023-04-12T03:07:17.242Z,1055.00
2023-04-12T03:08:17.265Z,1049.00
2023-04-12T03:09:17.247Z,1065.00
2023-04-12T03:10:17.258Z,1059.00
2023-04-12T03:11:17.280Z,1062.00
2023-04-12T03:12:17.308Z,1060.00
2023-04-12T03:13:17.284Z,1055.00
2023-04-12T03:14:17.290Z,1054.00
2023-04-12T03:15:17.285Z,1045.00
2023-04-12T03:16:17.437Z,1052.00
2023-04-12T03:17:17.318Z,1044.00
2023-04-12T03:18:17.332Z,1047.00
2023-04-12T03:19:17.342Z,1051.00
2023-04-12T03:20:17.384Z,1041.00
2023-04-12T03:21:17.350Z,1050.00
2023-04-12T03:22:17.381Z,1051.00
2023-04-12T03:23:17.389Z,1046.00
2023-04-12T03:24:17.424Z,1046.00
2023-04-12T03:25:17.444Z,1045.00
2023-04-12T03:26:17.445Z,1030.00
2023-04-12T03:27:17.467Z,1036.00
2023-04-12T03:28:17.467Z,1045.00
2023-04-12T03:29:17.494Z,1039.00
2023-04-12T03:30:17.498Z,1033.00
2023-04-12T03:31:17.522Z,1044.00
2023-04-12T03:32:17.529Z,1033.00
2023-04-12T03:33:17.526Z,1032.00
2023-04-12T03:34:17.540Z,1041.00
2023-04-12T03:35:17.597Z,1021.00
2023-04-12T03:36:17.636Z,1025.00
2023-04-12T03:37:17.611Z,1029.00
2023-04-12T03:38:17.618Z,1028.00
2023-04-12T03:39:17.619Z,1023.00
2023-04-12T03:40:17.621Z,1032.00
2023-04-12T03:41:17.638Z,1028.00
2023-04-12T03:42:31.718Z,1019.00
2023-04-12T03:43:18.610Z,1020.00
2023-04-12T03:44:17.555Z,1020.00
2023-04-12T03:45:17.496Z,1020.00
2023-04-12T03:46:17.497Z,1025.00
2023-04-12T03:47:17.400Z,1038.00
2023-04-12T03:48:17.343Z,1024.00
2023-04-12T03:49:17.297Z,1029.00
2023-04-12T03:50:17.240Z,1022.00
2023-04-12T03:51:17.195Z,1028.00
2023-04-12T03:52:17.184Z,1025.00
2023-04-12T03:53:17.209Z,1026.00
2023-04-12T03:54:17.228Z,1021.00
2023-04-12T03:55:17.239Z,1014.00
2023-04-12T03:56:17.268Z,1026.00
2023-04-12T03:57:17.264Z,1032.00
2023-04-12T03:58:17.285Z,1012.00
2023-04-12T03:59:17.306Z,1005.00
2023-04-12T04:00:17.318Z,1013.00
2023-04-12T04:01:17.330Z,1014.00
2023-04-12T04:02:17.375Z,1010.00
2023-04-12T04:03:17.435Z,992.00
2023-04-12T04:04:17.664Z,1008.00
2023-04-12T04:05:17.439Z,1011.00
2023-04-12T04:06:17.383Z,1005.00
2023-04-12T04:07:17.378Z,1013.00
2023-04-12T04:08:17.368Z,1006.00
2023-04-12T04:09:17.370Z,997.00
2023-04-12T04:10:17.388Z,1030.00
2023-04-12T04:11:17.371Z,1000.00
2023-04-12T04:12:17.369Z,991.00
2023-04-12T04:13:17.389Z,1001.00
2023-04-12T04:14:17.399Z,1006.00
2023-04-12T04:15:17.405Z,1002.00
2023-04-12T04:16:17.483Z,984.00
2023-04-12T04:17:17.451Z,983.00
2023-04-12T04:18:17.459Z,992.00
2023-04-12T04:19:17.455Z,989.00
2023-04-12T04:20:17.470Z,997.00
2023-04-12T04:21:17.560Z,983.00
2023-04-12T04:22:17.490Z,974.00
2023-04-12T04:23:17.518Z,992.00
2023-04-12T04:24:17.514Z,992.00
2023-04-12T04:25:17.526Z,980.00
2023-04-12T04:26:17.537Z,988.00
2023-04-12T04:27:17.580Z,993.00
2023-04-12T04:28:17.560Z,990.00
2023-04-12T04:29:17.563Z,992.00
2023-04-12T04:30:17.573Z,986.00
2023-04-12T04:31:17.842Z,999.00
2023-04-12T04:32:17.558Z,970.00
2023-04-12T04:33:17.646Z,973.00
2023-04-12T04:34:17.597Z,1001.00
2023-04-12T04:35:17.665Z,992.00
2023-04-12T04:36:17.713Z,969.00
2023-04-12T04:37:17.642Z,974.00
2023-04-12T04:38:17.659Z,979.00
2023-04-12T04:39:17.694Z,967.00
2023-04-12T04:40:17.695Z,961.00
2023-04-12T04:41:17.712Z,972.00
2023-04-12T04:42:17.733Z,968.00
2023-04-12T04:43:17.771Z,974.00
2023-04-12T04:44:17.765Z,959.00
2023-04-12T04:45:17.780Z,969.00
2023-04-12T04:46:17.857Z,955.00
2023-04-12T04:47:17.841Z,957.00
2023-04-12T04:48:17.832Z,964.00
2023-04-12T04:49:17.854Z,962.00
2023-04-12T04:50:17.877Z,955.00
2023-04-12T04:51:17.894Z,966.00
2023-04-12T04:52:17.924Z,975.00
2023-04-12T04:53:17.940Z,965.00
2023-04-12T04:54:17.949Z,954.00
2023-04-12T04:55:18.004Z,958.00
2023-04-12T04:56:17.998Z,965.00
2023-04-12T04:57:18.002Z,952.00
2023-04-12T04:58:18.015Z,953.00
2023-04-12T04:59:18.021Z,951.00
2023-04-12T05:00:19.344Z,939.00
2023-04-12T05:01:18.087Z,955.00
2023-04-12T05:02:18.154Z,968.00
2023-04-12T05:03:18.200Z,953.00
2023-04-12T05:04:18.174Z,969.00
2023-04-12T05:05:18.136Z,974.00
2023-04-12T05:06:18.162Z,977.00
2023-04-12T05:07:18.161Z,955.00
2023-04-12T05:08:18.262Z,957.00
2023-04-12T05:09:18.192Z,954.00
2023-04-12T05:10:18.236Z,958.00
2023-04-12T05:11:18.265Z,957.00
2023-04-12T05:12:18.233Z,979.00
2023-04-12T05:13:18.223Z,1054.00
2023-04-12T05:14:18.233Z,1037.00
2023-04-12T05:15:18.255Z,1053.00
2023-04-12T05:16:18.382Z,1083.00
2023-04-12T05:17:18.247Z,1087.00
2023-04-12T05:18:18.246Z,1113.00
2023-04-12T05:19:18.255Z,1121.00
2023-04-12T05:20:18.228Z,1134.00
2023-04-12T05:21:18.225Z,1146.00
2023-04-12T05:22:19.457Z,1204.00
2023-04-12T05:23:18.218Z,1224.00
2023-04-12T05:24:18.152Z,1224.00
2023-04-12T05:25:18.131Z,1240.00
2023-04-12T05:26:18.118Z,1297.00
2023-04-12T05:27:18.103Z,1321.00
2023-04-12T05:28:18.112Z,1364.00
2023-04-12T05:29:18.075Z,1368.00
2023-04-12T05:30:18.049Z,1382.00
2023-04-12T05:31:18.082Z,1384.00
2023-04-12T05:32:19.003Z,1386.00
2023-04-12T05:33:18.942Z,1398.00
2023-04-12T05:34:17.888Z,1427.00
2023-04-12T05:35:17.947Z,1492.00
2023-04-12T05:36:17.792Z,1575.00
2023-04-12T05:37:17.751Z,1552.00
2023-04-12T05:38:17.696Z,1543.00
2023-04-12T05:39:20.040Z,1477.00
2023-04-12T05:40:17.600Z,1508.00
2023-04-12T05:41:17.532Z,1550.00
2023-04-12T05:42:17.493Z,1498.00
2023-04-12T05:43:17.432Z,1480.00
2023-04-12T05:44:17.383Z,1460.00
2023-04-12T05:45:17.344Z,1450.00
2023-04-12T05:46:17.290Z,1428.00
2023-04-12T05:47:17.261Z,1421.00
2023-04-12T05:48:17.193Z,1403.00
2023-04-12T05:49:17.145Z,1416.00
2023-04-12T05:50:17.109Z,1406.00
2023-04-12T05:51:19.524Z,1388.00
2023-04-12T05:52:18.004Z,1389.00
2023-04-12T05:53:16.940Z,1392.00
2023-04-12T05:54:16.894Z,1398.00
2023-04-12T05:55:16.841Z,1399.00
2023-04-12T05:56:16.789Z,1404.00
2023-04-12T05:57:16.766Z,1416.00
2023-04-12T05:58:16.728Z,1392.00
2023-04-12T05:59:16.657Z,1383.00
2023-04-12T06:00:16.634Z,1373.00
2023-04-12T06:01:16.788Z,1368.00
2023-04-12T06:02:16.749Z,1373.00
2023-04-12T06:03:16.755Z,1360.00
2023-04-12T06:04:16.894Z,1362.00
2023-04-12T06:05:16.820Z,1354.00
2023-04-12T06:06:16.712Z,1343.00
2023-04-12T06:07:16.724Z,1338.00
2023-04-12T06:08:16.752Z,1344.00
2023-04-12T06:09:16.751Z,1365.00
2023-04-12T06:10:16.770Z,1366.00
2023-04-12T06:11:16.801Z,1377.00
2023-04-12T06:12:17.449Z,1351.00
2023-04-12T06:13:16.838Z,1358.00
2023-04-12T06:14:16.846Z,1357.00
2023-04-12T06:15:16.872Z,1339.00
2023-04-12T06:16:16.945Z,1329.00
2023-04-12T06:17:16.929Z,1332.00
2023-04-12T06:18:16.915Z,1341.00
2023-04-12T06:19:17.008Z,1358.00
2023-04-12T06:20:16.937Z,1358.00
2023-04-12T06:21:16.956Z,1384.00
2023-04-12T06:22:16.997Z,1447.00
2023-04-12T06:23:17.473Z,1455.00
2023-04-12T06:24:16.989Z,1513.00
2023-04-12T06:25:16.956Z,1482.00
2023-04-12T06:26:18.450Z,1464.00
2023-04-12T06:27:16.896Z,1475.00
2023-04-12T06:28:16.999Z,1464.00
2023-04-12T06:29:16.879Z,1464.00
2023-04-12T06:30:17.465Z,1424.00
2023-04-12T06:31:16.955Z,1422.00
2023-04-12T06:32:16.973Z,1424.00
2023-04-12T06:33:17.477Z,1409.00
2023-04-12T06:34:16.968Z,1410.00
2023-04-12T06:35:16.963Z,1383.00
2023-04-12T06:36:17.050Z,1385.00
2023-04-12T06:37:16.996Z,1400.00
2023-04-12T06:38:17.005Z,1395.00
2023-04-12T06:39:17.117Z,1384.00
2023-04-12T06:40:17.018Z,1380.00
2023-04-12T06:41:17.029Z,1388.00
2023-04-12T06:42:17.064Z,1381.00
2023-04-12T06:43:17.062Z,1390.00
2023-04-12T06:44:17.087Z,1372.00
2023-04-12T06:45:17.075Z,1362.00
2023-04-12T06:46:17.181Z,1364.00
2023-04-12T06:47:17.102Z,1362.00
2023-04-12T06:48:17.113Z,1360.00
2023-04-12T06:49:17.140Z,1358.00
2023-04-12T06:50:17.145Z,1357.00
2023-04-12T06:51:17.186Z,1376.00
2023-04-12T06:52:17.209Z,1372.00
2023-04-12T06:53:17.180Z,1352.00
2023-04-12T06:54:17.190Z,1358.00
2023-04-12T06:55:17.210Z,1348.00
2023-04-12T06:56:18.584Z,1358.00
2023-04-12T06:57:17.233Z,1356.00
2023-04-12T06:58:18.001Z,1372.00
2023-04-12T06:59:17.270Z,1372.00
2023-04-12T07:00:17.283Z,1381.00
2023-04-12T07:01:17.343Z,1363.00
2023-04-12T07:02:17.441Z,1378.00
2023-04-12T07:03:17.356Z,1374.00
2023-04-12T07:04:17.429Z,1373.00
2023-04-12T07:05:17.376Z,1370.00
2023-04-12T07:06:24.930Z,1364.00
2023-04-12T07:07:17.313Z,1366.00
2023-04-12T07:08:17.269Z,1368.00
2023-04-12T07:09:17.227Z,1374.00
2023-04-12T07:10:17.224Z,1397.00
2023-04-12T07:11:21.349Z,1416.00
2023-04-12T07:12:18.094Z,1368.00
2023-04-12T07:13:17.040Z,1383.00
2023-04-12T07:14:17.057Z,1419.00
2023-04-12T07:15:16.946Z,1486.00
2023-04-12T07:16:17.072Z,1559.00
2023-04-12T07:17:16.864Z,1591.00
2023-04-12T07:18:16.830Z,1652.00
2023-04-12T07:19:16.774Z,1653.00
2023-04-12T07:20:16.737Z,1695.00
2023-04-12T07:21:16.702Z,1728.00
2023-04-12T07:22:16.712Z,1808.00
2023-04-12T07:23:16.716Z,1818.00
2023-04-12T07:24:16.736Z,1809.00
2023-04-12T07:25:16.744Z,1802.00
2023-04-12T07:26:16.768Z,1760.00
2023-04-12T07:27:16.785Z,1771.00
2023-04-12T07:28:16.788Z,1711.00
2023-04-12T07:29:16.788Z,1683.00
2023-04-12T07:30:16.798Z,1643.00
2023-04-12T07:31:16.799Z,1641.00
2023-04-12T07:32:16.749Z,1642.00
2023-04-12T07:33:19.966Z,1646.00
2023-04-12T07:34:17.789Z,1643.00
2023-04-12T07:35:16.604Z,1646.00
2023-04-12T07:36:16.618Z,1640.00
2023-04-12T07:37:16.511Z,1624.00
2023-04-12T07:38:17.067Z,1633.00
2023-04-12T07:39:16.441Z,1626.00
2023-04-12T07:40:16.348Z,1623.00
2023-04-12T07:41:16.298Z,1641.00
2023-04-12T07:42:16.244Z,1628.00
2023-04-12T07:43:16.216Z,1628.00
2023-04-12T07:44:16.143Z,1628.00
2023-04-12T07:45:16.129Z,1617.00
2023-04-12T07:46:16.094Z,1622.00
2023-04-12T07:47:16.009Z,1632.00
2023-04-12T07:48:17.514Z,1628.00
2023-04-12T07:49:15.939Z,1627.00
2023-04-12T07:50:15.995Z,1615.00
2023-04-12T07:51:16.012Z,1613.00
2023-04-12T07:52:15.997Z,1607.00
2023-04-12T07:53:16.022Z,1616.00
2023-04-12T07:54:16.036Z,1610.00
2023-04-12T07:55:16.070Z,1588.00
2023-04-12T07:56:16.076Z,1598.00
2023-04-12T07:57:16.101Z,1585.00
2023-04-12T07:58:16.108Z,1591.00
2023-04-12T07:59:16.119Z,1580.00
2023-04-12T08:00:16.136Z,1583.00
2023-04-12T08:01:16.154Z,1588.00
2023-04-12T08:02:16.287Z,1560.00
2023-04-12T08:03:16.359Z,1560.00
2023-04-12T08:04:16.642Z,1545.00
2023-04-12T08:05:17.049Z,1555.00
2023-04-12T08:06:16.361Z,1555.00
2023-04-12T08:07:16.226Z,1543.00
2023-04-12T08:08:16.248Z,1565.00
2023-04-12T08:09:16.291Z,1563.00
2023-04-12T08:10:16.270Z,1553.00
2023-04-12T08:11:16.283Z,1588.00
2023-04-12T08:12:16.283Z,1595.00
2023-04-12T08:13:16.247Z,1658.00
2023-04-12T08:14:16.209Z,1659.00
2023-04-12T08:15:17.143Z,1662.00
2023-04-12T08:16:17.080Z,1691.00
2023-04-12T08:17:17.014Z,1739.00
2023-04-12T08:18:16.002Z,1820.00
2023-04-12T08:19:15.964Z,1957.00
2023-04-12T08:20:16.316Z,1900.00
2023-04-12T08:21:15.873Z,1844.00
2023-04-12T08:22:15.831Z,1708.00
2023-04-12T08:23:15.787Z,1616.00
2023-04-12T08:24:15.767Z,1500.00
2023-04-12T08:25:15.751Z,1433.00
2023-04-12T08:26:15.702Z,1393.00
2023-04-12T08:27:15.683Z,1311.00
2023-04-12T08:28:17.479Z,1356.00
2023-04-12T08:29:16.529Z,1471.00
2023-04-12T08:30:15.599Z,1518.00
2023-04-12T08:31:15.611Z,1533.00
2023-04-12T08:32:15.720Z,1579.00
2023-04-12T08:33:15.492Z,1586.00
2023-04-12T08:34:15.471Z,1594.00
2023-04-12T08:35:15.492Z,1581.00
2023-04-12T08:36:15.494Z,1590.00
2023-04-12T08:37:15.488Z,1578.00
2023-04-12T08:38:15.519Z,1579.00
2023-04-12T08:39:15.519Z,1576.00
2023-04-12T08:40:16.053Z,1610.00
2023-04-12T08:41:15.777Z,1598.00
2023-04-12T08:42:16.527Z,1600.00
2023-04-12T08:43:15.601Z,1609.00
2023-04-12T08:44:15.700Z,1620.00
2023-04-12T08:45:15.632Z,1625.00
2023-04-12T08:46:15.983Z,1603.00
2023-04-12T08:47:15.666Z,1616.00
2023-04-12T08:48:16.524Z,1606.00
2023-04-12T08:49:15.701Z,1615.00
2023-04-12T08:50:17.550Z,1590.00
2023-04-12T08:51:15.731Z,1625.00
2023-04-12T08:52:15.800Z,1599.00
2023-04-12T08:53:15.734Z,1603.00
2023-04-12T08:54:17.544Z,1603.00
2023-04-12T08:55:15.642Z,1605.00
2023-04-12T08:56:18.545Z,1616.00
2023-04-12T08:57:15.556Z,1624.00
2023-04-12T08:58:16.557Z,1605.00
2023-04-12T08:59:15.455Z,1610.00
2023-04-12T09:00:15.395Z,1611.00
2023-04-12T09:01:15.425Z,1616.00
2023-04-12T09:02:16.266Z,1622.00
2023-04-12T09:03:15.469Z,1632.00
2023-04-12T09:04:15.322Z,1626.00
2023-04-12T09:05:15.321Z,1626.00
2023-04-12T09:06:16.043Z,1628.00
2023-04-12T09:07:15.096Z,1626.00
2023-04-12T09:08:17.071Z,1627.00
2023-04-12T09:09:14.996Z,1639.00
2023-04-12T09:10:14.956Z,1617.00
2023-04-12T09:11:14.902Z,1628.00
2023-04-12T09:12:14.846Z,1622.00
2023-04-12T09:13:14.807Z,1625.00
2023-04-12T09:14:14.801Z,1603.00
2023-04-12T09:15:14.803Z,1625.00
2023-04-12T09:16:14.845Z,1671.00
2023-04-12T09:17:14.809Z,1682.00
2023-04-12T09:18:17.240Z,1725.00
2023-04-12T09:19:14.765Z,1727.00
2023-04-12T09:20:15.587Z,1728.00
2023-04-12T09:21:14.681Z,1735.00
2023-04-12T09:22:14.648Z,1727.00
2023-04-12T09:23:14.626Z,1724.00
2023-04-12T09:24:15.112Z,1699.00
2023-04-12T09:25:14.561Z,1498.00
2023-04-12T09:26:17.069Z,1270.00
2023-04-12T09:27:14.477Z,1170.00
2023-04-12T09:28:14.559Z,1066.00
2023-04-12T09:29:14.442Z,1058.00
2023-04-12T09:30:14.447Z,1059.00
2023-04-12T09:31:14.413Z,1095.00
2023-04-12T09:32:14.379Z,1143.00
2023-04-12T09:33:14.359Z,1142.00
2023-04-12T09:34:14.319Z,1195.00
2023-04-12T09:35:14.280Z,1289.00
2023-04-12T09:36:14.332Z,1370.00
2023-04-12T09:37:14.250Z,1439.00
2023-04-12T09:38:14.156Z,1454.00
2023-04-12T09:39:14.108Z,1478.00
2023-04-12T09:40:16.128Z,1503.00
2023-04-12T09:41:14.043Z,1509.00
2023-04-12T09:42:29.942Z,1540.00
2023-04-12T09:43:14.955Z,1541.00
2023-04-12T09:44:13.898Z,1544.00
2023-04-12T09:45:13.867Z,1550.00
2023-04-12T09:46:13.854Z,1555.00
2023-04-12T09:47:15.591Z,1396.00
2023-04-12T09:48:13.773Z,1179.00
2023-04-12T09:49:13.714Z,983.00
2023-04-12T09:50:13.702Z,816.00
2023-04-12T09:51:13.709Z,714.00
2023-04-12T09:52:13.708Z,669.00
2023-04-12T09:53:13.699Z,674.00
2023-04-12T09:54:13.719Z,718.00
2023-04-12T09:55:13.675Z,751.00
2023-04-12T09:56:13.696Z,867.00
2023-04-12T09:57:13.621Z,919.00
2023-04-12T09:58:13.601Z,1023.00
2023-04-12T09:59:13.577Z,1095.00
2023-04-12T10:00:13.585Z,1163.00
2023-04-12T10:01:14.653Z,1211.00
2023-04-12T10:02:13.713Z,1201.00
2023-04-12T10:03:13.696Z,1236.00
2023-04-12T10:04:13.677Z,1259.00
2023-04-12T10:05:13.474Z,1260.00
2023-04-12T10:06:13.343Z,1263.00
2023-04-12T10:07:14.874Z,1273.00
2023-04-12T10:08:13.310Z,1297.00
2023-04-12T10:09:15.074Z,1333.00
2023-04-12T10:10:13.161Z,1344.00
2023-04-12T10:11:13.134Z,1359.00
2023-04-12T10:12:13.082Z,1352.00
2023-04-12T10:13:13.054Z,1394.00
2023-04-12T10:14:14.471Z,1421.00
2023-04-12T10:15:13.015Z,1473.00
2023-04-12T10:16:12.973Z,1529.00
2023-04-12T10:17:12.890Z,1534.00
2023-04-12T10:18:12.890Z,1541.00
2023-04-12T10:19:12.827Z,1524.00
2023-04-12T10:20:12.757Z,1494.00
2023-04-12T10:21:12.721Z,1487.00
2023-04-12T10:22:12.659Z,1466.00
2023-04-12T10:23:12.625Z,1461.00
2023-04-12T10:24:13.109Z,1476.00
2023-04-12T10:25:12.502Z,1471.00
2023-04-12T10:26:12.466Z,1468.00
2023-04-12T10:27:12.427Z,1483.00
2023-04-12T10:28:12.388Z,1493.00
2023-04-12T10:29:12.313Z,1487.00
2023-04-12T10:30:12.281Z,1483.00
2023-04-12T10:31:12.267Z,1510.00
2023-04-12T10:32:12.262Z,1510.00
2023-04-12T10:33:12.189Z,1485.00
2023-04-12T10:34:12.188Z,1471.00
2023-04-12T10:35:12.035Z,1465.00
2023-04-12T10:36:12.023Z,1479.00
2023-04-12T10:37:11.998Z,1470.00
2023-04-12T10:38:11.897Z,1508.00
2023-04-12T10:39:11.843Z,1516.00
2023-04-12T10:40:11.788Z,1502.00
2023-04-12T10:41:11.780Z,1472.00
2023-04-12T10:42:12.528Z,1518.00
2023-04-12T10:43:11.661Z,1520.00
2023-04-12T10:44:11.691Z,1534.00
2023-04-12T10:45:11.556Z,1575.00
2023-04-12T10:46:11.547Z,1562.00
2023-04-12T10:47:12.136Z,1567.00
2023-04-12T10:48:11.649Z,1558.00
2023-04-12T10:49:11.410Z,1574.00
2023-04-12T10:50:11.325Z,1595.00
2023-04-12T10:51:11.280Z,1612.00
2023-04-12T10:52:11.247Z,1613.00
2023-04-12T10:53:11.276Z,1609.00
2023-04-12T10:54:11.262Z,1626.00
2023-04-12T10:55:11.339Z,1603.00
2023-04-12T10:56:12.106Z,1604.00
2023-04-12T10:57:11.289Z,1615.00
2023-04-12T10:58:11.318Z,1639.00
2023-04-12T10:59:11.320Z,1638.00
2023-04-12T11:00:11.409Z,1649.00
2023-04-12T11:01:11.543Z,1690.00
2023-04-12T11:02:11.742Z,1702.00
2023-04-12T11:03:11.415Z,1739.00
2023-04-12T11:04:11.590Z,1783.00
2023-04-12T11:05:11.691Z,1823.00
2023-04-12T11:06:26.528Z,1845.00
2023-04-12T11:07:12.459Z,1847.00
2023-04-12T11:08:11.176Z,1853.00
2023-04-12T11:09:11.192Z,1868.00
2023-04-12T11:10:11.103Z,1893.00
2023-04-12T11:11:11.054Z,1956.00
2023-04-12T11:12:11.220Z,1955.00
2023-04-12T11:13:10.932Z,1982.00
2023-04-12T11:14:10.860Z,2004.00
2023-04-12T11:15:10.790Z,2011.00
2023-04-12T11:16:10.770Z,2006.00
2023-04-12T11:17:10.847Z,2002.00
2023-04-12T11:18:10.864Z,2011.00
2023-04-12T11:19:10.757Z,2019.00
2023-04-12T11:20:10.773Z,2016.00
2023-04-12T11:21:10.729Z,2013.00
2023-04-12T11:22:10.724Z,1997.00
2023-04-12T11:23:11.455Z,1998.00
2023-04-12T11:24:12.131Z,2001.00
2023-04-12T11:25:10.780Z,1991.00
2023-04-12T11:26:10.750Z,1978.00
2023-04-12T11:27:10.729Z,1983.00
2023-04-12T11:28:25.055Z,1979.00
2023-04-12T11:29:11.664Z,1979.00
2023-04-12T11:30:10.644Z,1980.00
2023-04-12T11:31:10.573Z,1989.00
2023-04-12T11:32:10.624Z,1994.00
2023-04-12T11:33:10.481Z,2003.00
2023-04-12T11:34:10.386Z,1992.00
2023-04-12T11:35:10.335Z,1982.00
2023-04-12T11:36:10.278Z,1982.00
2023-04-12T11:37:10.229Z,1983.00
2023-04-12T11:38:10.171Z,1980.00
2023-04-12T11:39:10.175Z,1964.00
2023-04-12T11:40:10.169Z,1952.00
2023-04-12T11:41:10.171Z,1946.00
2023-04-12T11:42:10.158Z,1951.00
2023-04-12T11:43:10.167Z,1936.00
2023-04-12T11:44:10.255Z,1905.00
2023-04-12T11:45:16.968Z,1944.00
2023-04-12T11:46:11.156Z,1946.00
2023-04-12T11:47:10.217Z,1951.00
2023-04-12T11:48:10.035Z,1957.00
2023-04-12T11:49:09.940Z,1985.00
2023-04-12T11:50:09.880Z,2019.00
2023-04-12T11:51:11.607Z,2015.00
2023-04-12T11:52:09.766Z,2008.00
2023-04-12T11:53:09.724Z,2002.00
2023-04-12T11:54:09.653Z,1983.00
2023-04-12T11:55:09.605Z,2015.00
2023-04-12T11:56:10.544Z,2015.00
2023-04-12T11:57:09.505Z,2024.00
2023-04-12T11:58:09.449Z,2054.00
2023-04-12T11:59:09.418Z,2099.00
2023-04-12T12:00:09.346Z,2151.00
2023-04-12T12:01:09.295Z,2146.00
2023-04-12T12:02:21.919Z,2143.00
2023-04-12T12:03:10.334Z,2135.00
2023-04-12T12:04:09.326Z,2084.00
2023-04-12T12:05:09.197Z,1885.00
2023-04-12T12:06:09.964Z,1708.00
2023-04-12T12:07:09.212Z,1745.00